createdAt,value
2022-12-23T14:00:36.945Z,24.55
2022-12-23T14:03:13.825Z,23.35
2022-12-23T14:05:50.755Z,26.15
2022-12-23T14:08:32.190Z,23.08
2022-12-23T14:11:04.617Z,22.42
2022-12-23T14:14:18.169Z,22.25
2022-12-23T14:17:14.671Z,21.10
2022-12-23T14:20:14.762Z,21.73
2022-12-23T14:23:17.801Z,20.05
2022-12-23T14:26:21.307Z,20.58
2022-12-23T14:29:45.071Z,20.23
2022-12-23T14:32:42.418Z,18.33
2022-12-23T14:35:42.143Z,19.73
2022-12-23T14:38:16.686Z,16.90
2022-12-23T14:40:53.665Z,16.73
2022-12-23T14:43:26.628Z,17.90
2022-12-23T14:46:10.541Z,18.50
2022-12-23T14:49:37.606Z,15.88
2022-12-23T14:52:07.890Z,17.65
2022-12-23T14:54:55.104Z,14.57
2022-12-23T14:57:46.427Z,16.77
2022-12-23T15:00:21.503Z,16.58
2022-12-23T15:02:57.734Z,15.70
2022-12-23T15:05:30.373Z,14.68
2022-12-23T15:08:05.638Z,17.20
2022-12-23T15:10:40.139Z,16.23
2022-12-23T15:13:15.996Z,16.15
2022-12-23T15:16:02.532Z,15.02
2022-12-23T15:18:37.925Z,18.45
2022-12-23T15:21:12.601Z,16.55
2022-12-23T15:24:32.234Z,17.90
2022-12-23T15:29:59.714Z,18.20
2022-12-23T15:32:45.565Z,18.20
2022-12-23T15:35:34.603Z,32.08
2022-12-23T15:38:07.541Z,18.63
2022-12-23T15:40:47.591Z,20.30
2022-12-23T15:43:23.551Z,18.88
2022-12-23T15:45:59.120Z,20.73
2022-12-23T15:48:35.544Z,20.88
2022-12-23T15:51:50.107Z,16.23
2022-12-23T15:54:49.590Z,16.50
2022-12-23T15:57:28.443Z,31.08
2022-12-23T16:00:12.326Z,34.33
2022-12-23T16:03:01.838Z,35.72
2022-12-23T16:05:44.950Z,44.63
2022-12-23T16:08:35.709Z,44.42
2022-12-23T16:11:24.042Z,43.22
2022-12-23T16:14:01.930Z,42.03
